sensor_id;sensor_type;location;lat;lon;timestamp;P1;durP1;ratioP1;P2;durP2;ratioP2
5690;SDS011;2870;42.680;23.364;2022-08-19T00:00:30;21.50;;;10.13;;
5690;SDS011;2870;42.680;23.364;2022-08-19T00:02:57;15.70;;;10.23;;
5690;SDS011;2870;42.680;23.364;2022-08-19T00:05:24;22.53;;;10.00;;
5690;SDS011;2870;42.680;23.364;2022-08-19T00:07:51;18.30;;;11.20;;
5690;SDS011;2870;42.680;23.364;2022-08-19T00:10:19;17.33;;;10.03;;
5690;SDS011;2870;42.680;23.364;2022-08-19T00:12:46;16.37;;;10.83;;
5690;SDS011;2870;42.680;23.364;2022-08-19T00:15:14;17.73;;;10.20;;
5690;SDS011;2870;42.680;23.364;2022-08-19T00:17:43;20.60;;;10.10;;
5690;SDS011;2870;42.680;23.364;2022-08-19T00:20:13;15.83;;;10.93;;
5690;SDS011;2870;42.680;23.364;2022-08-19T00:22:43;25.97;;;10.17;;
5690;SDS011;2870;42.680;23.364;2022-08-19T00:25:11;17.50;;;11.50;;
5690;SDS011;2870;42.680;23.364;2022-08-19T00:27:40;20.10;;;9.93;;
5690;SDS011;2870;42.680;23.364;2022-08-19T00:30:07;19.63;;;10.50;;
5690;SDS011;2870;42.680;23.364;2022-08-19T00:32:35;23.70;;;10.77;;
5690;SDS011;2870;42.680;23.364;2022-08-19T00:35:03;18.83;;;10.73;;
5690;SDS011;2870;42.680;23.364;2022-08-19T00:37:30;20.67;;;10.80;;
5690;SDS011;2870;42.680;23.364;2022-08-19T00:39:58;23.97;;;11.20;;
5690;SDS011;2870;42.680;23.364;2022-08-19T00:42:24;23.90;;;11.57;;
5690;SDS011;2870;42.680;23.364;2022-08-19T00:44:55;17.90;;;11.90;;
5690;SDS011;2870;42.680;23.364;2022-08-19T00:47:22;18.13;;;11.30;;
5690;SDS011;2870;42.680;23.364;2022-08-19T00:49:53;22.87;;;12.10;;
5690;SDS011;2870;42.680;23.364;2022-08-19T00:52:23;17.77;;;12.83;;
5690;SDS011;2870;42.680;23.364;2022-08-19T00:54:54;26.03;;;13.07;;
5690;SDS011;2870;42.680;23.364;2022-08-19T00:57:23;23.27;;;13.80;;
5690;SDS011;2870;42.680;23.364;2022-08-19T00:59:55;17.17;;;12.13;;
5690;SDS011;2870;42.680;23.364;2022-08-19T01:02:24;19.00;;;12.63;;
5690;SDS011;2870;42.680;23.364;2022-08-19T01:04:52;20.33;;;11.60;;
5690;SDS011;2870;42.680;23.364;2022-08-19T01:07:19;16.47;;;10.63;;
5690;SDS011;2870;42.680;23.364;2022-08-19T01:09:46;15.37;;;10.97;;
5690;SDS011;2870;42.680;23.364;2022-08-19T01:12:13;19.20;;;10.70;;
5690;SDS011;2870;42.680;23.364;2022-08-19T01:14:41;16.70;;;10.47;;
5690;SDS011;2870;42.680;23.364;2022-08-19T01:17:09;17.20;;;10.00;;
5690;SDS011;2870;42.680;23.364;2022-08-19T01:19:38;14.30;;;10.30;;
5690;SDS011;2870;42.680;23.364;2022-08-19T01:22:08;18.03;;;10.50;;
5690;SDS011;2870;42.680;23.364;2022-08-19T01:24:42;15.70;;;10.57;;
5690;SDS011;2870;42.680;23.364;2022-08-19T01:27:09;14.63;;;11.40;;
5690;SDS011;2870;42.680;23.364;2022-08-19T01:29:37;19.00;;;9.50;;
5690;SDS011;2870;42.680;23.364;2022-08-19T01:32:05;19.80;;;10.67;;
5690;SDS011;2870;42.680;23.364;2022-08-19T01:34:33;14.87;;;10.50;;
5690;SDS011;2870;42.680;23.364;2022-08-19T01:37:00;15.23;;;11.10;;
5690;SDS011;2870;42.680;23.364;2022-08-19T01:39:33;16.83;;;10.40;;
5690;SDS011;2870;42.680;23.364;2022-08-19T01:42:01;15.83;;;10.57;;
5690;SDS011;2870;42.680;23.364;2022-08-19T01:44:29;15.20;;;10.93;;
5690;SDS011;2870;42.680;23.364;2022-08-19T01:46:56;19.90;;;10.53;;
5690;SDS011;2870;42.680;23.364;2022-08-19T01:49:23;13.47;;;10.17;;
5690;SDS011;2870;42.680;23.364;2022-08-19T01:51:52;13.37;;;9.20;;
5690;SDS011;2870;42.680;23.364;2022-08-19T01:54:20;14.00;;;10.13;;
5690;SDS011;2870;42.680;23.364;2022-08-19T01:56:48;14.33;;;10.63;;
5690;SDS011;2870;42.680;23.364;2022-08-19T01:59:19;14.13;;;10.17;;
5690;SDS011;2870;42.680;23.364;2022-08-19T02:01:49;15.73;;;11.50;;
5690;SDS011;2870;42.680;23.364;2022-08-19T02:04:16;13.87;;;10.63;;
5690;SDS011;2870;42.680;23.364;2022-08-19T02:06:42;11.53;;;9.57;;
5690;SDS011;2870;42.680;23.364;2022-08-19T02:09:09;15.60;;;10.17;;
5690;SDS011;2870;42.680;23.364;2022-08-19T02:11:36;13.63;;;10.67;;
5690;SDS011;2870;42.680;23.364;2022-08-19T02:14:05;14.30;;;10.07;;
5690;SDS011;2870;42.680;23.364;2022-08-19T02:16:35;14.10;;;11.43;;
5690;SDS011;2870;42.680;23.364;2022-08-19T02:19:02;14.73;;;9.83;;
5690;SDS011;2870;42.680;23.364;2022-08-19T02:21:30;14.70;;;11.40;;
5690;SDS011;2870;42.680;23.364;2022-08-19T02:23:56;16.20;;;10.70;;
5690;SDS011;2870;42.680;23.364;2022-08-19T02:26:24;13.40;;;10.03;;
5690;SDS011;2870;42.680;23.364;2022-08-19T02:28:52;15.40;;;10.57;;
5690;SDS011;2870;42.680;23.364;2022-08-19T02:31:21;16.40;;;11.40;;
5690;SDS011;2870;42.680;23.364;2022-08-19T02:33:51;16.03;;;12.07;;
5690;SDS011;2870;42.680;23.364;2022-08-19T02:36:18;14.37;;;10.50;;
5690;SDS011;2870;42.680;23.364;2022-08-19T02:38:45;16.10;;;10.70;;
5690;SDS011;2870;42.680;23.364;2022-08-19T02:41:12;14.97;;;10.37;;
5690;SDS011;2870;42.680;23.364;2022-08-19T02:43:44;16.53;;;10.47;;
5690;SDS011;2870;42.680;23.364;2022-08-19T02:46:15;16.20;;;10.67;;
5690;SDS011;2870;42.680;23.364;2022-08-19T02:48:46;21.93;;;11.40;;
5690;SDS011;2870;42.680;23.364;2022-08-19T02:51:18;15.27;;;11.60;;
5690;SDS011;2870;42.680;23.364;2022-08-19T02:53:47;14.77;;;11.30;;
5690;SDS011;2870;42.680;23.364;2022-08-19T02:56:15;19.90;;;11.83;;
5690;SDS011;2870;42.680;23.364;2022-08-19T02:58:42;15.13;;;11.40;;
5690;SDS011;2870;42.680;23.364;2022-08-19T03:01:09;22.40;;;11.00;;
5690;SDS011;2870;42.680;23.364;2022-08-19T03:03:37;14.97;;;11.50;;
5690;SDS011;2870;42.680;23.364;2022-08-19T03:06:05;14.80;;;11.13;;
5690;SDS011;2870;42.680;23.364;2022-08-19T03:08:36;15.60;;;11.17;;
5690;SDS011;2870;42.680;23.364;2022-08-19T03:11:03;16.00;;;12.10;;
5690;SDS011;2870;42.680;23.364;2022-08-19T03:13:30;15.13;;;10.83;;
5690;SDS011;2870;42.680;23.364;2022-08-19T03:15:58;13.90;;;11.50;;
5690;SDS011;2870;42.680;23.364;2022-08-19T03:18:24;15.47;;;12.70;;
5690;SDS011;2870;42.680;23.364;2022-08-19T03:20:52;15.10;;;11.77;;
5690;SDS011;2870;42.680;23.364;2022-08-19T03:23:19;22.93;;;12.53;;
5690;SDS011;2870;42.680;23.364;2022-08-19T03:25:49;17.70;;;12.70;;
5690;SDS011;2870;42.680;23.364;2022-08-19T03:28:18;17.40;;;12.90;;
5690;SDS011;2870;42.680;23.364;2022-08-19T03:30:54;16.77;;;12.00;;
5690;SDS011;2870;42.680;23.364;2022-08-19T03:33:23;15.50;;;12.30;;
5690;SDS011;2870;42.680;23.364;2022-08-19T03:36:07;22.73;;;11.50;;
5690;SDS011;2870;42.680;23.364;2022-08-19T03:38:36;16.00;;;12.10;;
5690;SDS011;2870;42.680;23.364;2022-08-19T03:41:06;21.23;;;12.23;;
5690;SDS011;2870;42.680;23.364;2022-08-19T03:43:35;18.33;;;11.27;;
5690;SDS011;2870;42.680;23.364;2022-08-19T03:46:03;16.73;;;12.80;;
5690;SDS011;2870;42.680;23.364;2022-08-19T03:48:32;18.70;;;12.60;;
5690;SDS011;2870;42.680;23.364;2022-08-19T03:51:01;15.13;;;12.50;;
5690;SDS011;2870;42.680;23.364;2022-08-19T03:53:29;15.57;;;12.27;;
5690;SDS011;2870;42.680;23.364;2022-08-19T03:55:56;19.33;;;12.00;;
5690;SDS011;2870;42.680;23.364;2022-08-19T03:58:26;20.20;;;12.63;;
5690;SDS011;2870;42.680;23.364;2022-08-19T04:00:54;21.53;;;12.10;;
5690;SDS011;2870;42.680;23.364;2022-08-19T04:03:21;21.20;;;12.67;;
5690;SDS011;2870;42.680;23.364;2022-08-19T04:05:49;19.37;;;12.63;;
5690;SDS011;2870;42.680;23.364;2022-08-19T04:08:16;18.63;;;12.30;;
5690;SDS011;2870;42.680;23.364;2022-08-19T04:10:45;22.63;;;11.90;;
5690;SDS011;2870;42.680;23.364;2022-08-19T04:13:13;20.30;;;13.03;;
5690;SDS011;2870;42.680;23.364;2022-08-19T04:15:42;21.67;;;12.97;;
5690;SDS011;2870;42.680;23.364;2022-08-19T04:18:11;21.23;;;13.50;;
5690;SDS011;2870;42.680;23.364;2022-08-19T04:20:39;19.53;;;11.90;;
5690;SDS011;2870;42.680;23.364;2022-08-19T04:23:07;25.07;;;14.27;;
5690;SDS011;2870;42.680;23.364;2022-08-19T04:25:35;17.10;;;12.90;;
5690;SDS011;2870;42.680;23.364;2022-08-19T04:28:06;20.60;;;12.97;;
5690;SDS011;2870;42.680;23.364;2022-08-19T04:30:38;18.93;;;12.30;;
5690;SDS011;2870;42.680;23.364;2022-08-19T04:33:09;20.20;;;14.03;;
5690;SDS011;2870;42.680;23.364;2022-08-19T04:35:42;25.37;;;13.77;;
5690;SDS011;2870;42.680;23.364;2022-08-19T04:38:11;16.67;;;12.50;;
5690;SDS011;2870;42.680;23.364;2022-08-19T04:40:40;18.80;;;13.10;;
5690;SDS011;2870;42.680;23.364;2022-08-19T04:43:24;25.03;;;13.40;;
5690;SDS011;2870;42.680;23.364;2022-08-19T04:45:51;20.53;;;13.00;;
5690;SDS011;2870;42.680;23.364;2022-08-19T04:48:20;20.27;;;13.60;;
5690;SDS011;2870;42.680;23.364;2022-08-19T04:50:50;21.00;;;12.90;;
5690;SDS011;2870;42.680;23.364;2022-08-19T04:53:22;21.27;;;14.53;;
5690;SDS011;2870;42.680;23.364;2022-08-19T04:55:50;23.50;;;14.17;;
5690;SDS011;2870;42.680;23.364;2022-08-19T04:58:17;27.50;;;16.77;;
5690;SDS011;2870;42.680;23.364;2022-08-19T05:00:44;22.40;;;13.80;;
5690;SDS011;2870;42.680;23.364;2022-08-19T05:03:11;19.80;;;13.50;;
5690;SDS011;2870;42.680;23.364;2022-08-19T05:05:40;26.13;;;14.60;;
5690;SDS011;2870;42.680;23.364;2022-08-19T05:08:07;31.27;;;15.63;;
5690;SDS011;2870;42.680;23.364;2022-08-19T05:10:34;29.43;;;14.00;;
5690;SDS011;2870;42.680;23.364;2022-08-19T05:13:02;24.30;;;12.60;;
5690;SDS011;2870;42.680;23.364;2022-08-19T05:15:29;23.37;;;14.10;;
5690;SDS011;2870;42.680;23.364;2022-08-19T05:17:56;26.50;;;14.27;;
5690;SDS011;2870;42.680;23.364;2022-08-19T05:20:41;20.83;;;14.43;;
5690;SDS011;2870;42.680;23.364;2022-08-19T05:23:26;26.30;;;13.77;;
5690;SDS011;2870;42.680;23.364;2022-08-19T05:25:53;23.30;;;13.00;;
5690;SDS011;2870;42.680;23.364;2022-08-19T05:28:19;19.47;;;14.77;;
5690;SDS011;2870;42.680;23.364;2022-08-19T05:30:47;20.23;;;13.77;;
5690;SDS011;2870;42.680;23.364;2022-08-19T05:33:15;34.17;;;13.47;;
5690;SDS011;2870;42.680;23.364;2022-08-19T05:35:44;27.83;;;14.10;;
5690;SDS011;2870;42.680;23.364;2022-08-19T05:38:11;21.00;;;13.20;;
5690;SDS011;2870;42.680;23.364;2022-08-19T05:40:38;16.90;;;12.70;;
5690;SDS011;2870;42.680;23.364;2022-08-19T05:43:07;18.60;;;11.90;;
5690;SDS011;2870;42.680;23.364;2022-08-19T05:45:37;17.27;;;13.17;;
5690;SDS011;2870;42.680;23.364;2022-08-19T05:48:05;23.37;;;12.83;;
5690;SDS011;2870;42.680;23.364;2022-08-19T05:50:32;21.57;;;13.50;;
5690;SDS011;2870;42.680;23.364;2022-08-19T05:53:00;26.87;;;12.13;;
5690;SDS011;2870;42.680;23.364;2022-08-19T05:55:26;20.70;;;12.57;;
5690;SDS011;2870;42.680;23.364;2022-08-19T05:57:53;19.60;;;12.70;;
5690;SDS011;2870;42.680;23.364;2022-08-19T06:00:20;23.17;;;13.40;;
5690;SDS011;2870;42.680;23.364;2022-08-19T06:02:48;25.13;;;13.10;;
5690;SDS011;2870;42.680;23.364;2022-08-19T06:05:16;28.17;;;13.50;;
5690;SDS011;2870;42.680;23.364;2022-08-19T06:07:42;21.00;;;12.40;;
5690;SDS011;2870;42.680;23.364;2022-08-19T06:10:11;18.40;;;12.30;;
5690;SDS011;2870;42.680;23.364;2022-08-19T06:12:37;17.77;;;11.80;;
5690;SDS011;2870;42.680;23.364;2022-08-19T06:15:06;20.63;;;11.90;;
5690;SDS011;2870;42.680;23.364;2022-08-19T06:17:34;19.40;;;12.77;;
5690;SDS011;2870;42.680;23.364;2022-08-19T06:20:02;28.13;;;13.10;;
5690;SDS011;2870;42.680;23.364;2022-08-19T06:22:31;18.73;;;12.40;;
5690;SDS011;2870;42.680;23.364;2022-08-19T06:25:03;24.07;;;11.70;;
5690;SDS011;2870;42.680;23.364;2022-08-19T06:27:31;15.87;;;12.67;;
5690;SDS011;2870;42.680;23.364;2022-08-19T06:29:58;21.73;;;11.50;;
5690;SDS011;2870;42.680;23.364;2022-08-19T06:32:25;17.20;;;10.90;;
5690;SDS011;2870;42.680;23.364;2022-08-19T06:34:52;22.13;;;11.53;;
5690;SDS011;2870;42.680;23.364;2022-08-19T06:37:19;18.70;;;11.70;;
5690;SDS011;2870;42.680;23.364;2022-08-19T06:39:47;15.20;;;11.10;;
5690;SDS011;2870;42.680;23.364;2022-08-19T06:42:17;19.93;;;10.47;;
5690;SDS011;2870;42.680;23.364;2022-08-19T06:44:45;15.23;;;10.43;;
5690;SDS011;2870;42.680;23.364;2022-08-19T06:47:15;20.03;;;10.50;;
5690;SDS011;2870;42.680;23.364;2022-08-19T06:49:44;19.10;;;9.80;;
5690;SDS011;2870;42.680;23.364;2022-08-19T06:52:11;18.60;;;11.40;;
5690;SDS011;2870;42.680;23.364;2022-08-19T06:54:38;14.87;;;10.57;;
5690;SDS011;2870;42.680;23.364;2022-08-19T06:57:06;14.83;;;10.10;;
5690;SDS011;2870;42.680;23.364;2022-08-19T06:59:34;15.27;;;9.20;;
5690;SDS011;2870;42.680;23.364;2022-08-19T07:02:05;18.50;;;11.50;;
5690;SDS011;2870;42.680;23.364;2022-08-19T07:04:32;14.20;;;10.17;;
5690;SDS011;2870;42.680;23.364;2022-08-19T07:07:01;15.70;;;11.10;;
5690;SDS011;2870;42.680;23.364;2022-08-19T07:09:33;30.50;;;12.33;;
5690;SDS011;2870;42.680;23.364;2022-08-19T07:12:02;23.27;;;11.00;;
5690;SDS011;2870;42.680;23.364;2022-08-19T07:14:31;17.47;;;10.47;;
5690;SDS011;2870;42.680;23.364;2022-08-19T07:17:04;16.93;;;10.00;;
5690;SDS011;2870;42.680;23.364;2022-08-19T07:19:33;24.40;;;11.30;;
5690;SDS011;2870;42.680;23.364;2022-08-19T07:22:01;21.40;;;10.57;;
5690;SDS011;2870;42.680;23.364;2022-08-19T07:24:30;20.27;;;10.00;;
5690;SDS011;2870;42.680;23.364;2022-08-19T07:26:58;13.53;;;9.60;;
5690;SDS011;2870;42.680;23.364;2022-08-19T07:29:28;16.40;;;10.73;;
5690;SDS011;2870;42.680;23.364;2022-08-19T07:31:56;14.77;;;9.20;;
5690;SDS011;2870;42.680;23.364;2022-08-19T07:34:25;14.27;;;9.10;;
5690;SDS011;2870;42.680;23.364;2022-08-19T07:36:53;15.33;;;10.87;;
5690;SDS011;2870;42.680;23.364;2022-08-19T07:39:22;23.63;;;10.20;;
5690;SDS011;2870;42.680;23.364;2022-08-19T07:41:50;23.30;;;10.53;;
5690;SDS011;2870;42.680;23.364;2022-08-19T07:44:18;15.47;;;9.67;;
5690;SDS011;2870;42.680;23.364;2022-08-19T07:46:47;17.10;;;9.30;;
5690;SDS011;2870;42.680;23.364;2022-08-19T07:49:17;16.50;;;9.23;;
5690;SDS011;2870;42.680;23.364;2022-08-19T07:51:46;19.17;;;9.50;;
5690;SDS011;2870;42.680;23.364;2022-08-19T07:54:15;16.57;;;9.13;;
5690;SDS011;2870;42.680;23.364;2022-08-19T07:56:43;18.00;;;9.07;;
5690;SDS011;2870;42.680;23.364;2022-08-19T07:59:09;16.90;;;8.43;;
5690;SDS011;2870;42.680;23.364;2022-08-19T08:01:37;11.97;;;8.20;;
5690;SDS011;2870;42.680;23.364;2022-08-19T08:04:05;13.77;;;8.40;;
5690;SDS011;2870;42.680;23.364;2022-08-19T08:06:51;12.20;;;8.93;;
5690;SDS011;2870;42.680;23.364;2022-08-19T08:09:38;13.47;;;8.97;;
5690;SDS011;2870;42.680;23.364;2022-08-19T08:12:09;21.80;;;8.70;;
5690;SDS011;2870;42.680;23.364;2022-08-19T08:14:38;10.87;;;8.20;;
5690;SDS011;2870;42.680;23.364;2022-08-19T08:17:07;11.90;;;7.20;;
5690;SDS011;2870;42.680;23.364;2022-08-19T08:19:35;10.43;;;7.20;;
5690;SDS011;2870;42.680;23.364;2022-08-19T08:22:04;14.20;;;7.47;;
5690;SDS011;2870;42.680;23.364;2022-08-19T08:24:32;14.30;;;7.77;;
5690;SDS011;2870;42.680;23.364;2022-08-19T08:27:01;14.00;;;8.00;;
5690;SDS011;2870;42.680;23.364;2022-08-19T08:29:30;11.00;;;8.27;;
5690;SDS011;2870;42.680;23.364;2022-08-19T08:31:58;14.27;;;7.00;;
5690;SDS011;2870;42.680;23.364;2022-08-19T08:34:24;17.13;;;8.17;;
5690;SDS011;2870;42.680;23.364;2022-08-19T08:36:51;13.53;;;7.57;;
5690;SDS011;2870;42.680;23.364;2022-08-19T08:39:20;10.70;;;6.87;;
5690;SDS011;2870;42.680;23.364;2022-08-19T08:41:50;15.77;;;6.90;;
5690;SDS011;2870;42.680;23.364;2022-08-19T08:44:20;18.17;;;7.57;;
5690;SDS011;2870;42.680;23.364;2022-08-19T08:46:50;10.30;;;6.43;;
5690;SDS011;2870;42.680;23.364;2022-08-19T08:49:26;15.40;;;6.77;;
5690;SDS011;2870;42.680;23.364;2022-08-19T08:51:59;12.10;;;6.57;;
5690;SDS011;2870;42.680;23.364;2022-08-19T08:54:33;12.23;;;6.33;;
5690;SDS011;2870;42.680;23.364;2022-08-19T08:57:03;10.00;;;6.73;;
5690;SDS011;2870;42.680;23.364;2022-08-19T08:59:34;9.03;;;6.07;;
5690;SDS011;2870;42.680;23.364;2022-08-19T09:02:06;8.37;;;6.00;;
5690;SDS011;2870;42.680;23.364;2022-08-19T09:04:33;10.30;;;5.47;;
5690;SDS011;2870;42.680;23.364;2022-08-19T09:07:04;11.03;;;5.70;;
5690;SDS011;2870;42.680;23.364;2022-08-19T09:09:45;10.60;;;5.90;;
5690;SDS011;2870;42.680;23.364;2022-08-19T09:12:16;14.80;;;6.00;;
5690;SDS011;2870;42.680;23.364;2022-08-19T09:14:51;8.30;;;5.90;;
5690;SDS011;2870;42.680;23.364;2022-08-19T09:17:22;25.87;;;6.87;;
5690;SDS011;2870;42.680;23.364;2022-08-19T09:19:53;10.50;;;5.63;;
5690;SDS011;2870;42.680;23.364;2022-08-19T09:22:21;10.70;;;4.63;;
5690;SDS011;2870;42.680;23.364;2022-08-19T09:24:49;6.10;;;4.07;;
5690;SDS011;2870;42.680;23.364;2022-08-19T09:27:18;17.17;;;4.87;;
5690;SDS011;2870;42.680;23.364;2022-08-19T09:29:45;11.63;;;4.90;;
5690;SDS011;2870;42.680;23.364;2022-08-19T09:32:13;5.40;;;3.50;;
5690;SDS011;2870;42.680;23.364;2022-08-19T09:34:40;5.60;;;4.30;;
5690;SDS011;2870;42.680;23.364;2022-08-19T09:37:08;5.23;;;4.33;;
5690;SDS011;2870;42.680;23.364;2022-08-19T09:39:35;6.27;;;4.33;;
5690;SDS011;2870;42.680;23.364;2022-08-19T09:42:03;6.97;;;4.30;;
5690;SDS011;2870;42.680;23.364;2022-08-19T09:44:34;7.03;;;4.20;;
5690;SDS011;2870;42.680;23.364;2022-08-19T09:47:01;8.97;;;4.30;;
5690;SDS011;2870;42.680;23.364;2022-08-19T09:49:28;12.37;;;4.23;;
5690;SDS011;2870;42.680;23.364;2022-08-19T09:51:56;6.67;;;4.37;;
5690;SDS011;2870;42.680;23.364;2022-08-19T09:54:23;9.03;;;4.60;;
5690;SDS011;2870;42.680;23.364;2022-08-19T09:56:50;8.73;;;4.87;;
5690;SDS011;2870;42.680;23.364;2022-08-19T09:59:19;8.40;;;4.33;;
5690;SDS011;2870;42.680;23.364;2022-08-19T10:01:46;8.83;;;4.83;;
5690;SDS011;2870;42.680;23.364;2022-08-19T10:04:13;18.93;;;4.40;;
5690;SDS011;2870;42.680;23.364;2022-08-19T10:06:40;6.03;;;4.20;;
5690;SDS011;2870;42.680;23.364;2022-08-19T10:09:08;10.80;;;4.30;;
5690;SDS011;2870;42.680;23.364;2022-08-19T10:11:36;4.70;;;3.93;;
5690;SDS011;2870;42.680;23.364;2022-08-19T10:14:05;7.70;;;5.20;;
5690;SDS011;2870;42.680;23.364;2022-08-19T10:16:34;6.30;;;3.97;;
5690;SDS011;2870;42.680;23.364;2022-08-19T10:19:04;5.70;;;4.17;;
5690;SDS011;2870;42.680;23.364;2022-08-19T10:21:31;6.60;;;4.40;;
5690;SDS011;2870;42.680;23.364;2022-08-19T10:24:00;11.60;;;4.37;;
5690;SDS011;2870;42.680;23.364;2022-08-19T10:26:31;7.13;;;4.53;;
5690;SDS011;2870;42.680;23.364;2022-08-19T10:29:01;12.63;;;4.50;;
5690;SDS011;2870;42.680;23.364;2022-08-19T10:31:30;8.10;;;4.43;;
5690;SDS011;2870;42.680;23.364;2022-08-19T10:34:01;6.97;;;4.23;;
5690;SDS011;2870;42.680;23.364;2022-08-19T10:36:29;6.10;;;3.77;;
5690;SDS011;2870;42.680;23.364;2022-08-19T10:38:58;6.03;;;3.80;;
5690;SDS011;2870;42.680;23.364;2022-08-19T10:41:29;4.80;;;3.77;;
5690;SDS011;2870;42.680;23.364;2022-08-19T10:43:59;7.67;;;4.10;;
5690;SDS011;2870;42.680;23.364;2022-08-19T10:46:32;9.60;;;4.67;;
5690;SDS011;2870;42.680;23.364;2022-08-19T10:49:03;10.43;;;4.83;;
5690;SDS011;2870;42.680;23.364;2022-08-19T10:51:31;7.07;;;4.70;;
5690;SDS011;2870;42.680;23.364;2022-08-19T10:54:16;18.97;;;12.10;;
5690;SDS011;2870;42.680;23.364;2022-08-19T10:56:44;13.10;;;8.90;;
5690;SDS011;2870;42.680;23.364;2022-08-19T10:59:19;6.27;;;4.50;;
5690;SDS011;2870;42.680;23.364;2022-08-19T11:01:47;8.87;;;4.80;;
5690;SDS011;2870;42.680;23.364;2022-08-19T11:04:17;10.60;;;4.23;;
5690;SDS011;2870;42.680;23.364;2022-08-19T11:06:45;8.40;;;5.27;;
5690;SDS011;2870;42.680;23.364;2022-08-19T11:09:14;7.63;;;4.87;;
5690;SDS011;2870;42.680;23.364;2022-08-19T11:11:41;11.40;;;5.73;;
5690;SDS011;2870;42.680;23.364;2022-08-19T11:14:09;6.87;;;4.90;;
5690;SDS011;2870;42.680;23.364;2022-08-19T11:16:37;8.50;;;5.90;;
5690;SDS011;2870;42.680;23.364;2022-08-19T11:19:05;11.60;;;4.57;;
5690;SDS011;2870;42.680;23.364;2022-08-19T11:21:35;7.37;;;5.30;;
5690;SDS011;2870;42.680;23.364;2022-08-19T11:24:05;13.70;;;10.40;;
5690;SDS011;2870;42.680;23.364;2022-08-19T11:26:34;6.73;;;4.77;;
5690;SDS011;2870;42.680;23.364;2022-08-19T11:29:02;9.40;;;4.40;;
5690;SDS011;2870;42.680;23.364;2022-08-19T11:31:31;6.73;;;4.80;;
5690;SDS011;2870;42.680;23.364;2022-08-19T11:34:01;8.10;;;5.33;;
5690;SDS011;2870;42.680;23.364;2022-08-19T11:36:30;10.40;;;4.97;;
5690;SDS011;2870;42.680;23.364;2022-08-19T11:38:59;7.10;;;4.93;;
5690;SDS011;2870;42.680;23.364;2022-08-19T11:41:27;7.40;;;4.87;;
5690;SDS011;2870;42.680;23.364;2022-08-19T11:43:54;8.10;;;5.13;;
5690;SDS011;2870;42.680;23.364;2022-08-19T11:46:22;6.03;;;5.07;;
5690;SDS011;2870;42.680;23.364;2022-08-19T11:48:49;8.70;;;5.43;;
5690;SDS011;2870;42.680;23.364;2022-08-19T11:51:17;12.20;;;5.10;;
5690;SDS011;2870;42.680;23.364;2022-08-19T11:53:46;8.93;;;5.50;;
5690;SDS011;2870;42.680;23.364;2022-08-19T11:56:15;9.67;;;6.00;;
5690;SDS011;2870;42.680;23.364;2022-08-19T11:58:41;7.60;;;5.37;;
5690;SDS011;2870;42.680;23.364;2022-08-19T12:01:08;6.10;;;4.40;;
5690;SDS011;2870;42.680;23.364;2022-08-19T12:03:36;8.10;;;5.00;;
5690;SDS011;2870;42.680;23.364;2022-08-19T12:06:04;6.57;;;4.80;;
5690;SDS011;2870;42.680;23.364;2022-08-19T12:08:32;11.20;;;5.67;;
5690;SDS011;2870;42.680;23.364;2022-08-19T12:10:59;7.53;;;4.90;;
5690;SDS011;2870;42.680;23.364;2022-08-19T12:13:28;8.90;;;6.50;;
5690;SDS011;2870;42.680;23.364;2022-08-19T12:15:56;10.07;;;5.27;;
5690;SDS011;2870;42.680;23.364;2022-08-19T12:18:24;11.13;;;5.80;;
5690;SDS011;2870;42.680;23.364;2022-08-19T12:20:51;12.03;;;6.40;;
5690;SDS011;2870;42.680;23.364;2022-08-19T12:23:20;9.77;;;5.60;;
5690;SDS011;2870;42.680;23.364;2022-08-19T12:25:47;13.43;;;5.90;;
5690;SDS011;2870;42.680;23.364;2022-08-19T12:28:17;11.30;;;5.57;;
5690;SDS011;2870;42.680;23.364;2022-08-19T12:30:46;6.13;;;4.93;;
5690;SDS011;2870;42.680;23.364;2022-08-19T12:33:14;6.57;;;5.07;;
5690;SDS011;2870;42.680;23.364;2022-08-19T12:35:40;10.20;;;5.13;;
5690;SDS011;2870;42.680;23.364;2022-08-19T12:38:09;7.67;;;5.00;;
5690;SDS011;2870;42.680;23.364;2022-08-19T12:40:36;9.33;;;5.77;;
5690;SDS011;2870;42.680;23.364;2022-08-19T12:43:05;8.20;;;5.50;;
5690;SDS011;2870;42.680;23.364;2022-08-19T12:45:32;18.87;;;5.70;;
5690;SDS011;2870;42.680;23.364;2022-08-19T12:48:00;9.73;;;5.37;;
5690;SDS011;2870;42.680;23.364;2022-08-19T12:50:28;12.43;;;5.50;;
5690;SDS011;2870;42.680;23.364;2022-08-19T12:52:55;10.10;;;5.43;;
5690;SDS011;2870;42.680;23.364;2022-08-19T12:55:23;8.60;;;5.60;;
5690;SDS011;2870;42.680;23.364;2022-08-19T12:57:50;10.13;;;5.23;;
5690;SDS011;2870;42.680;23.364;2022-08-19T13:00:17;10.87;;;5.07;;
5690;SDS011;2870;42.680;23.364;2022-08-19T13:02:46;10.20;;;6.10;;
5690;SDS011;2870;42.680;23.364;2022-08-19T13:05:18;10.27;;;5.53;;
5690;SDS011;2870;42.680;23.364;2022-08-19T13:07:47;10.90;;;5.80;;
5690;SDS011;2870;42.680;23.364;2022-08-19T13:10:17;8.07;;;5.00;;
5690;SDS011;2870;42.680;23.364;2022-08-19T13:12:45;13.20;;;5.60;;
5690;SDS011;2870;42.680;23.364;2022-08-19T13:15:14;10.00;;;5.00;;
5690;SDS011;2870;42.680;23.364;2022-08-19T13:17:45;12.87;;;5.50;;
5690;SDS011;2870;42.680;23.364;2022-08-19T13:20:14;11.70;;;6.17;;
5690;SDS011;2870;42.680;23.364;2022-08-19T13:22:45;8.17;;;5.77;;
5690;SDS011;2870;42.680;23.364;2022-08-19T13:25:13;12.23;;;6.87;;
5690;SDS011;2870;42.680;23.364;2022-08-19T13:27:42;8.30;;;4.97;;
5690;SDS011;2870;42.680;23.364;2022-08-19T13:30:11;11.33;;;5.97;;
5690;SDS011;2870;42.680;23.364;2022-08-19T13:32:56;7.93;;;5.27;;
5690;SDS011;2870;42.680;23.364;2022-08-19T13:35:41;7.93;;;6.27;;
5690;SDS011;2870;42.680;23.364;2022-08-19T13:38:11;11.70;;;5.50;;
5690;SDS011;2870;42.680;23.364;2022-08-19T13:40:39;15.73;;;6.20;;
5690;SDS011;2870;42.680;23.364;2022-08-19T13:43:07;7.57;;;5.40;;
5690;SDS011;2870;42.680;23.364;2022-08-19T13:45:35;10.57;;;5.37;;
5690;SDS011;2870;42.680;23.364;2022-08-19T13:48:03;16.87;;;5.97;;
5690;SDS011;2870;42.680;23.364;2022-08-19T13:50:33;10.43;;;5.80;;
5690;SDS011;2870;42.680;23.364;2022-08-19T13:53:04;9.23;;;5.90;;
5690;SDS011;2870;42.680;23.364;2022-08-19T13:55:31;9.17;;;6.03;;
5690;SDS011;2870;42.680;23.364;2022-08-19T13:57:58;7.23;;;5.80;;
5690;SDS011;2870;42.680;23.364;2022-08-19T14:00:28;7.40;;;5.37;;
5690;SDS011;2870;42.680;23.364;2022-08-19T14:02:57;10.93;;;5.87;;
5690;SDS011;2870;42.680;23.364;2022-08-19T14:05:24;7.80;;;6.30;;
5690;SDS011;2870;42.680;23.364;2022-08-19T14:07:53;10.00;;;5.43;;
5690;SDS011;2870;42.680;23.364;2022-08-19T14:10:21;9.60;;;5.83;;
5690;SDS011;2870;42.680;23.364;2022-08-19T14:12:49;10.00;;;5.50;;
5690;SDS011;2870;42.680;23.364;2022-08-19T14:15:20;9.60;;;5.53;;
5690;SDS011;2870;42.680;23.364;2022-08-19T14:17:47;9.23;;;5.50;;
5690;SDS011;2870;42.680;23.364;2022-08-19T14:20:14;18.17;;;6.87;;
5690;SDS011;2870;42.680;23.364;2022-08-19T14:22:41;17.80;;;6.37;;
5690;SDS011;2870;42.680;23.364;2022-08-19T14:25:10;8.60;;;5.57;;
5690;SDS011;2870;42.680;23.364;2022-08-19T14:27:40;9.33;;;5.30;;
5690;SDS011;2870;42.680;23.364;2022-08-19T14:30:08;9.83;;;6.00;;
5690;SDS011;2870;42.680;23.364;2022-08-19T14:32:37;10.73;;;5.83;;
5690;SDS011;2870;42.680;23.364;2022-08-19T14:35:04;7.73;;;5.63;;
5690;SDS011;2870;42.680;23.364;2022-08-19T14:37:32;12.13;;;5.93;;
5690;SDS011;2870;42.680;23.364;2022-08-19T14:39:59;15.17;;;6.90;;
5690;SDS011;2870;42.680;23.364;2022-08-19T14:42:26;11.20;;;5.90;;
5690;SDS011;2870;42.680;23.364;2022-08-19T14:44:56;9.73;;;5.30;;
5690;SDS011;2870;42.680;23.364;2022-08-19T14:47:23;10.00;;;5.60;;
5690;SDS011;2870;42.680;23.364;2022-08-19T14:49:51;9.23;;;5.77;;
5690;SDS011;2870;42.680;23.364;2022-08-19T14:52:18;10.30;;;6.00;;